sensor_id;sensor_type;location;lat;lon;timestamp;pressure;altitude;pressure_sealevel;temperature;humidity
49030;BME280;43337;52.070;4.508;2023-05-21T00:01:15;102103.03;;;13.56;100.00
49030;BME280;43337;52.070;4.508;2023-05-21T00:03:44;102107.41;;;13.57;100.00
49030;BME280;43337;52.070;4.508;2023-05-21T00:06:13;102106.59;;;13.55;100.00
49030;BME280;43337;52.070;4.508;2023-05-21T00:08:39;102104.13;;;13.51;100.00
49030;BME280;43337;52.070;4.508;2023-05-21T00:11:05;102100.50;;;13.53;100.00
49030;BME280;43337;52.070;4.508;2023-05-21T00:13:31;102097.91;;;13.52;100.00
49030;BME280;43337;52.070;4.508;2023-05-21T00:15:56;102094.31;;;13.53;100.00
49030;BME280;43337;52.070;4.508;2023-05-21T00:18:21;102086.44;;;13.51;100.00
49030;BME280;43337;52.070;4.508;2023-05-21T00:20:49;102090.19;;;13.46;100.00
49030;BME280;43337;52.070;4.508;2023-05-21T00:23:15;102097.91;;;13.52;100.00
49030;BME280;43337;52.070;4.508;2023-05-21T00:25:43;102095.41;;;13.47;100.00
49030;BME280;43337;52.070;4.508;2023-05-21T00:28:09;102077.97;;;13.41;100.00
49030;BME280;43337;52.070;4.508;2023-05-21T00:30:35;102077.06;;;13.42;100.00
49030;BME280;43337;52.070;4.508;2023-05-21T00:33:00;102082.13;;;13.49;100.00
49030;BME280;43337;52.070;4.508;2023-05-21T00:35:26;102082.09;;;13.50;100.00
49030;BME280;43337;52.070;4.508;2023-05-21T00:37:52;102074.25;;;13.47;100.00
49030;BME280;43337;52.070;4.508;2023-05-21T00:40:18;102063.94;;;13.39;100.00
49030;BME280;43337;52.070;4.508;2023-05-21T00:42:43;102058.66;;;13.39;100.00
49030;BME280;43337;52.070;4.508;2023-05-21T00:45:12;102064.00;;;13.38;100.00
49030;BME280;43337;52.070;4.508;2023-05-21T00:47:39;102074.19;;;13.49;100.00
49030;BME280;43337;52.070;4.508;2023-05-21T00:50:06;102073.41;;;13.45;100.00
49030;BME280;43337;52.070;4.508;2023-05-21T00:52:32;102075.88;;;13.51;100.00
49030;BME280;43337;52.070;4.508;2023-05-21T00:55:06;102069.81;;;13.48;100.00
49030;BME280;43337;52.070;4.508;2023-05-21T00:57:32;102075.97;;;13.48;100.00
49030;BME280;43337;52.070;4.508;2023-05-21T00:59:59;102077.72;;;13.49;100.00
49030;BME280;43337;52.070;4.508;2023-05-21T01:02:25;102076.06;;;13.45;100.00
49030;BME280;43337;52.070;4.508;2023-05-21T01:04:53;102075.94;;;13.50;100.00
49030;BME280;43337;52.070;4.508;2023-05-21T01:07:19;102075.88;;;13.51;100.00
49030;BME280;43337;52.070;4.508;2023-05-21T01:09:46;102072.53;;;13.46;100.00
49030;BME280;43337;52.070;4.508;2023-05-21T01:12:12;102062.91;;;13.43;100.00
49030;BME280;43337;52.070;4.508;2023-05-21T01:14:38;102059.56;;;13.38;100.00
49030;BME280;43337;52.070;4.508;2023-05-21T01:17:05;102072.72;;;13.40;100.00
49030;BME280;43337;52.070;4.508;2023-05-21T01:19:34;102063.16;;;13.36;100.00
49030;BME280;43337;52.070;4.508;2023-05-21T01:22:04;102058.91;;;13.32;100.00
49030;BME280;43337;52.070;4.508;2023-05-21T01:24:29;102064.19;;;13.32;100.00
49030;BME280;43337;52.070;4.508;2023-05-21T01:26:55;102064.25;;;13.30;100.00
49030;BME280;43337;52.070;4.508;2023-05-21T01:29:22;102059.09;;;13.26;100.00
49030;BME280;43337;52.070;4.508;2023-05-21T01:34:46;102060.78;;;13.28;100.00
49030;BME280;43337;52.070;4.508;2023-05-21T01:37:24;102056.44;;;13.27;100.00
49030;BME280;43337;52.070;4.508;2023-05-21T01:39:56;102059.00;;;13.29;100.00
49030;BME280;43337;52.070;4.508;2023-05-21T01:42:24;102053.72;;;13.29;100.00
49030;BME280;43337;52.070;4.508;2023-05-21T01:44:54;102060.59;;;13.34;100.00
49030;BME280;43337;52.070;4.508;2023-05-21T01:47:22;102064.00;;;13.38;100.00
49030;BME280;43337;52.070;4.508;2023-05-21T01:49:49;102057.78;;;13.39;100.00
49030;BME280;43337;52.070;4.508;2023-05-21T01:52:15;102064.69;;;13.43;100.00
49030;BME280;43337;52.070;4.508;2023-05-21T01:54:41;102057.44;;;13.48;100.00
49030;BME280;43337;52.070;4.508;2023-05-21T01:57:06;102060.91;;;13.50;100.00
49030;BME280;43337;52.070;4.508;2023-05-21T01:59:32;102051.94;;;13.54;100.00
49030;BME280;43337;52.070;4.508;2023-05-21T02:01:57;102054.38;;;13.60;100.00
49030;BME280;43337;52.070;4.508;2023-05-21T02:04:23;102043.94;;;13.56;100.00
49030;BME280;43337;52.070;4.508;2023-05-21T02:06:48;102061.25;;;13.66;100.00
49030;BME280;43337;52.070;4.508;2023-05-21T02:09:13;102043.69;;;13.63;100.00
49030;BME280;43337;52.070;4.508;2023-05-21T02:11:38;102060.22;;;13.70;100.00
49030;BME280;43337;52.070;4.508;2023-05-21T02:14:04;102042.66;;;13.67;100.00
49030;BME280;43337;52.070;4.508;2023-05-21T02:16:30;102039.88;;;13.71;100.00
49030;BME280;43337;52.070;4.508;2023-05-21T02:18:55;102043.28;;;13.74;100.00
49030;BME280;43337;52.070;4.508;2023-05-21T02:21:22;102042.94;;;13.83;100.00
49030;BME280;43337;52.070;4.508;2023-05-21T02:23:47;102039.63;;;13.78;100.00
49030;BME280;43337;52.070;4.508;2023-05-21T02:26:13;102045.59;;;13.83;100.00
49030;BME280;43337;52.070;4.508;2023-05-21T02:28:38;102038.75;;;13.78;100.00
49030;BME280;43337;52.070;4.508;2023-05-21T02:31:04;102031.66;;;13.78;100.00
49030;BME280;43337;52.070;4.508;2023-05-21T02:33:30;102026.50;;;13.75;100.00
49030;BME280;43337;52.070;4.508;2023-05-21T02:35:55;102036.09;;;13.78;100.00
49030;BME280;43337;52.070;4.508;2023-05-21T02:38:20;102026.31;;;13.80;100.00
49030;BME280;43337;52.070;4.508;2023-05-21T02:40:47;102048.59;;;13.98;100.00
49030;BME280;43337;52.070;4.508;2023-05-21T02:43:13;102051.06;;;14.02;100.00
49030;BME280;43337;52.070;4.508;2023-05-21T02:45:39;102051.06;;;14.02;100.00
49030;BME280;43337;52.070;4.508;2023-05-21T02:48:04;102040.56;;;14.01;100.00
49030;BME280;43337;52.070;4.508;2023-05-21T02:50:30;102038.84;;;14.00;100.00
49030;BME280;43337;52.070;4.508;2023-05-21T02:52:55;102043.03;;;14.05;100.00
49030;BME280;43337;52.070;4.508;2023-05-21T02:55:20;102047.28;;;14.09;100.00
49030;BME280;43337;52.070;4.508;2023-05-21T02:57:47;102042.81;;;14.11;100.00
49030;BME280;43337;52.070;4.508;2023-05-21T03:00:12;102052.47;;;14.12;100.00
49030;BME280;43337;52.070;4.508;2023-05-21T03:02:38;102047.34;;;14.08;100.00
49030;BME280;43337;52.070;4.508;2023-05-21T03:05:04;102045.38;;;14.13;100.00
49030;BME280;43337;52.070;4.508;2023-05-21T03:07:30;102040.25;;;14.08;100.00
49030;BME280;43337;52.070;4.508;2023-05-21T03:09:55;102048.03;;;14.13;100.00
49030;BME280;43337;52.070;4.508;2023-05-21T03:12:21;102038.19;;;14.16;100.00
49030;BME280;43337;52.070;4.508;2023-05-21T03:14:47;102022.69;;;14.06;100.00
49030;BME280;43337;52.070;4.508;2023-05-21T03:17:13;102048.59;;;14.21;100.00
49030;BME280;43337;52.070;4.508;2023-05-21T03:19:40;102036.16;;;14.23;100.00
49030;BME280;43337;52.070;4.508;2023-05-21T03:22:05;102029.19;;;14.21;100.00
49030;BME280;43337;52.070;4.508;2023-05-21T03:24:31;102028.34;;;14.20;100.00
49030;BME280;43337;52.070;4.508;2023-05-21T03:26:58;102030.88;;;14.23;100.00
49030;BME280;43337;52.070;4.508;2023-05-21T03:29:25;102020.38;;;14.20;100.00
49030;BME280;43337;52.070;4.508;2023-05-21T03:31:54;102029.19;;;14.21;100.00
49030;BME280;43337;52.070;4.508;2023-05-21T03:34:20;102032.66;;;14.23;100.00
49030;BME280;43337;52.070;4.508;2023-05-21T03:36:46;102027.50;;;14.18;100.00
49030;BME280;43337;52.070;4.508;2023-05-21T03:39:12;102024.00;;;14.17;100.00
49030;BME280;43337;52.070;4.508;2023-05-21T03:41:37;102026.53;;;14.21;100.00
49030;BME280;43337;52.070;4.508;2023-05-21T03:44:03;102022.22;;;14.18;100.00
49030;BME280;43337;52.070;4.508;2023-05-21T03:46:28;102021.53;;;14.13;100.00
49030;BME280;43337;52.070;4.508;2023-05-21T03:48:53;102029.28;;;14.19;100.00
49030;BME280;43337;52.070;4.508;2023-05-21T03:51:19;102023.97;;;14.19;100.00
49030;BME280;43337;52.070;4.508;2023-05-21T03:53:44;102040.72;;;14.20;100.00
49030;BME280;43337;52.070;4.508;2023-05-21T03:56:10;102035.47;;;14.18;100.00
49030;BME280;43337;52.070;4.508;2023-05-21T03:58:35;102013.88;;;14.05;100.00
49030;BME280;43337;52.070;4.508;2023-05-21T04:01:01;102033.00;;;14.13;100.00
49030;BME280;43337;52.070;4.508;2023-05-21T04:03:29;102032.09;;;14.14;100.00
49030;BME280;43337;52.070;4.508;2023-05-21T04:05:54;102027.69;;;14.13;100.00
49030;BME280;43337;52.070;4.508;2023-05-21T04:08:20;102038.25;;;14.15;100.00
49030;BME280;43337;52.070;4.508;2023-05-21T04:10:45;102051.34;;;14.18;100.00
49030;BME280;43337;52.070;4.508;2023-05-21T04:13:11;102042.69;;;14.14;100.00
49030;BME280;43337;52.070;4.508;2023-05-21T04:15:36;102034.84;;;14.11;100.00
49030;BME280;43337;52.070;4.508;2023-05-21T04:18:02;102017.69;;;13.98;100.00
49030;BME280;43337;52.070;4.508;2023-05-21T04:20:28;102025.22;;;14.09;100.00
49030;BME280;43337;52.070;4.508;2023-05-21T04:22:54;102043.38;;;14.20;100.00
49030;BME280;43337;52.070;4.508;2023-05-21T04:25:19;102039.91;;;14.17;100.00
49030;BME280;43337;52.070;4.508;2023-05-21T04:27:47;102045.09;;;14.21;100.00
49030;BME280;43337;52.070;4.508;2023-05-21T04:30:12;102039.75;;;14.22;100.00
49030;BME280;43337;52.070;4.508;2023-05-21T04:32:38;102026.66;;;14.17;100.00
49030;BME280;43337;52.070;4.508;2023-05-21T04:35:03;102035.31;;;14.23;100.00
49030;BME280;43337;52.070;4.508;2023-05-21T04:37:29;102039.78;;;14.21;100.00
49030;BME280;43337;52.070;4.508;2023-05-21T04:39:56;102048.41;;;14.26;100.00
49030;BME280;43337;52.070;4.508;2023-05-21T04:42:22;102040.44;;;14.27;100.00
49030;BME280;43337;52.070;4.508;2023-05-21T04:44:48;102040.44;;;14.27;100.00
49030;BME280;43337;52.070;4.508;2023-05-21T04:47:13;102031.81;;;14.22;100.00
49030;BME280;43337;52.070;4.508;2023-05-21T04:49:39;102034.31;;;14.25;100.00
49030;BME280;43337;52.070;4.508;2023-05-21T04:52:04;102045.53;;;14.32;100.00
49030;BME280;43337;52.070;4.508;2023-05-21T04:54:29;102035.03;;;14.30;100.00
49030;BME280;43337;52.070;4.508;2023-05-21T04:56:55;102027.09;;;14.29;100.00
49030;BME280;43337;52.070;4.508;2023-05-21T04:59:20;102040.00;;;14.38;100.00
49030;BME280;43337;52.070;4.508;2023-05-21T05:01:46;102032.06;;;14.38;100.00
49030;BME280;43337;52.070;4.508;2023-05-21T05:04:12;102032.19;;;14.35;100.00
49030;BME280;43337;52.070;4.508;2023-05-21T05:06:37;102045.06;;;14.44;100.00
49030;BME280;43337;52.070;4.508;2023-05-21T05:09:03;102031.03;;;14.42;100.00
49030;BME280;43337;52.070;4.508;2023-05-21T05:11:28;102026.31;;;14.50;100.00
49030;BME280;43337;52.070;4.508;2023-05-21T05:13:54;102030.59;;;14.53;100.00
49030;BME280;43337;52.070;4.508;2023-05-21T05:16:19;102023.66;;;14.50;100.00
49030;BME280;43337;52.070;4.508;2023-05-21T05:18:52;102033.09;;;14.57;100.00
49030;BME280;43337;52.070;4.508;2023-05-21T05:21:17;102036.41;;;14.62;100.00
49030;BME280;43337;52.070;4.508;2023-05-21T05:23:43;102028.47;;;14.62;100.00
49030;BME280;43337;52.070;4.508;2023-05-21T05:26:09;102030.06;;;14.67;100.00
49030;BME280;43337;52.070;4.508;2023-05-21T05:28:35;102024.66;;;14.70;100.00
49030;BME280;43337;52.070;4.508;2023-05-21T05:31:00;102024.56;;;14.71;100.00
49030;BME280;43337;52.070;4.508;2023-05-21T05:33:26;102018.28;;;14.74;100.00
49030;BME280;43337;52.070;4.508;2023-05-21T05:35:51;102017.34;;;14.75;100.00
49030;BME280;43337;52.070;4.508;2023-05-21T05:38:16;101981.06;;;14.55;100.00
49030;BME280;43337;52.070;4.508;2023-05-21T05:40:42;102019.97;;;14.76;100.00
49030;BME280;43337;52.070;4.508;2023-05-21T05:43:07;101985.19;;;14.62;100.00
49030;BME280;43337;52.070;4.508;2023-05-21T05:45:33;102015.44;;;14.78;100.00
49030;BME280;43337;52.070;4.508;2023-05-21T05:47:58;102012.06;;;14.75;100.00
49030;BME280;43337;52.070;4.508;2023-05-21T05:50:23;101991.25;;;14.65;100.00
49030;BME280;43337;52.070;4.508;2023-05-21T05:52:49;101991.13;;;14.69;100.00
49030;BME280;43337;52.070;4.508;2023-05-21T05:55:15;101980.00;;;14.59;100.00
49030;BME280;43337;52.070;4.508;2023-05-21T05:57:40;102000.66;;;14.73;100.00
49030;BME280;43337;52.070;4.508;2023-05-21T06:00:06;102000.50;;;14.76;100.00
49030;BME280;43337;52.070;4.508;2023-05-21T06:02:34;101997.75;;;14.79;100.00
49030;BME280;43337;52.070;4.508;2023-05-21T06:05:00;102005.50;;;14.83;100.00
49030;BME280;43337;52.070;4.508;2023-05-21T06:07:25;101999.34;;;14.83;100.00
49030;BME280;43337;52.070;4.508;2023-05-21T06:09:50;102009.56;;;14.92;100.00
49030;BME280;43337;52.070;4.508;2023-05-21T06:12:16;102002.72;;;14.86;100.00
49030;BME280;43337;52.070;4.508;2023-05-21T06:14:41;102017.53;;;14.92;100.00
49030;BME280;43337;52.070;4.508;2023-05-21T06:17:07;102022.44;;;15.01;100.00
49030;BME280;43337;52.070;4.508;2023-05-21T06:19:32;102018.81;;;15.04;100.00
49030;BME280;43337;52.070;4.508;2023-05-21T06:21:57;102027.22;;;15.13;100.00
49030;BME280;43337;52.070;4.508;2023-05-21T06:24:23;102028.78;;;15.19;100.00
49030;BME280;43337;52.070;4.508;2023-05-21T06:26:48;102012.84;;;15.19;100.00
49030;BME280;43337;52.070;4.508;2023-05-21T06:29:13;102022.19;;;15.28;100.00
49030;BME280;43337;52.070;4.508;2023-05-21T06:31:39;102023.59;;;15.36;100.00
49030;BME280;43337;52.070;4.508;2023-05-21T06:34:04;102030.47;;;15.41;100.00
49030;BME280;43337;52.070;4.508;2023-05-21T06:36:29;102016.44;;;15.38;100.00
49030;BME280;43337;52.070;4.508;2023-05-21T06:38:56;102023.84;;;15.51;100.00
49030;BME280;43337;52.070;4.508;2023-05-21T06:41:22;102013.31;;;15.49;100.00
49030;BME280;43337;52.070;4.508;2023-05-21T06:43:47;102025.09;;;15.62;100.00
49030;BME280;43337;52.070;4.508;2023-05-21T06:46:12;102016.28;;;15.62;100.00
49030;BME280;43337;52.070;4.508;2023-05-21T06:48:38;102012.63;;;15.65;100.00
49030;BME280;43337;52.070;4.508;2023-05-21T06:51:03;102016.81;;;15.70;100.00
49030;BME280;43337;52.070;4.508;2023-05-21T06:53:28;102023.00;;;15.71;100.00
49030;BME280;43337;52.070;4.508;2023-05-21T06:55:54;102023.78;;;15.73;100.00
49030;BME280;43337;52.070;4.508;2023-05-21T06:58:19;102024.44;;;15.78;100.00
49030;BME280;43337;52.070;4.508;2023-05-21T07:00:46;102027.91;;;15.80;100.00
49030;BME280;43337;52.070;4.508;2023-05-21T07:03:11;102029.63;;;15.81;100.00
49030;BME280;43337;52.070;4.508;2023-05-21T07:05:36;102027.75;;;15.83;100.00
49030;BME280;43337;52.070;4.508;2023-05-21T07:08:02;102032.88;;;15.88;100.00
49030;BME280;43337;52.070;4.508;2023-05-21T07:10:27;102033.66;;;15.90;100.00
49030;BME280;43337;52.070;4.508;2023-05-21T07:12:52;102039.69;;;15.93;100.00
49030;BME280;43337;52.070;4.508;2023-05-21T07:15:18;102043.13;;;15.95;100.00
49030;BME280;43337;52.070;4.508;2023-05-21T07:17:43;102038.69;;;15.96;100.00
49030;BME280;43337;52.070;4.508;2023-05-21T07:20:09;102043.66;;;16.03;100.00
49030;BME280;43337;52.070;4.508;2023-05-21T07:22:37;102049.59;;;16.08;100.00
49030;BME280;43337;52.070;4.508;2023-05-21T07:25:03;102048.53;;;16.13;100.00
49030;BME280;43337;52.070;4.508;2023-05-21T07:27:28;102048.38;;;16.16;100.00
49030;BME280;43337;52.070;4.508;2023-05-21T07:29:53;102028.78;;;16.18;100.00
49030;BME280;43337;52.070;4.508;2023-05-21T07:32:19;102018.34;;;16.14;100.00
49030;BME280;43337;52.070;4.508;2023-05-21T07:34:44;102031.09;;;16.26;100.00
49030;BME280;43337;52.070;4.508;2023-05-21T07:37:09;102037.09;;;16.29;100.00
49030;BME280;43337;52.070;4.508;2023-05-21T07:39:35;102036.41;;;16.26;100.00
49030;BME280;43337;52.070;4.508;2023-05-21T07:42:01;102030.91;;;16.29;100.00
49030;BME280;43337;52.070;4.508;2023-05-21T07:44:27;102032.31;;;16.38;100.00
49030;BME280;43337;52.070;4.508;2023-05-21T07:46:52;102021.72;;;16.36;100.00
49030;BME280;43337;52.070;4.508;2023-05-21T07:49:17;102018.13;;;16.37;100.00
49030;BME280;43337;52.070;4.508;2023-05-21T07:51:43;102017.84;;;16.43;100.00
49030;BME280;43337;52.070;4.508;2023-05-21T07:54:09;102031.56;;;16.53;100.00
49030;BME280;43337;52.070;4.508;2023-05-21T07:56:34;102027.75;;;16.58;100.00
49030;BME280;43337;52.070;4.508;2023-05-21T07:59:00;102034.47;;;16.66;100.00
49030;BME280;43337;52.070;4.508;2023-05-21T08:01:26;102009.69;;;16.65;100.00
49030;BME280;43337;52.070;4.508;2023-05-21T08:03:52;102022.63;;;16.73;100.00
49030;BME280;43337;52.070;4.508;2023-05-21T08:06:17;102023.28;;;16.78;100.00
49030;BME280;43337;52.070;4.508;2023-05-21T08:08:42;102028.34;;;16.82;100.00
49030;BME280;43337;52.070;4.508;2023-05-21T08:11:08;102027.34;;;16.85;100.00
49030;BME280;43337;52.070;4.508;2023-05-21T08:13:33;102019.84;;;16.93;100.00
49030;BME280;43337;52.070;4.508;2023-05-21T08:15:58;102028.63;;;16.95;100.00
49030;BME280;43337;52.070;4.508;2023-05-21T08:18:24;102030.97;;;17.01;100.00
49030;BME280;43337;52.070;4.508;2023-05-21T08:20:49;102026.34;;;17.05;100.00
49030;BME280;43337;52.070;4.508;2023-05-21T08:23:15;102019.31;;;17.04;100.00
49030;BME280;43337;52.070;4.508;2023-05-21T08:25:41;102029.00;;;17.05;100.00
49030;BME280;43337;52.070;4.508;2023-05-21T08:28:06;102025.50;;;17.04;100.00
49030;BME280;43337;52.070;4.508;2023-05-21T08:30:31;102016.88;;;16.99;100.00
49030;BME280;43337;52.070;4.508;2023-05-21T08:32:57;102033.31;;;17.07;100.00
49030;BME280;43337;52.070;4.508;2023-05-21T08:35:23;102016.19;;;16.96;100.00
49030;BME280;43337;52.070;4.508;2023-05-21T08:37:48;102013.84;;;17.07;100.00
49030;BME280;43337;52.070;4.508;2023-05-21T08:40:14;102032.94;;;17.15;100.00
49030;BME280;43337;52.070;4.508;2023-05-21T08:42:44;102027.38;;;17.20;100.00
49030;BME280;43337;52.070;4.508;2023-05-21T08:45:11;102028.69;;;17.28;100.00
49030;BME280;43337;52.070;4.508;2023-05-21T08:47:41;102035.44;;;17.36;100.00
49030;BME280;43337;52.070;4.508;2023-05-21T08:50:12;102029.78;;;17.42;100.00
49030;BME280;43337;52.070;4.508;2023-05-21T08:52:38;102021.56;;;17.46;100.00
49030;BME280;43337;52.070;4.508;2023-05-21T08:55:04;102022.88;;;17.55;100.00
49030;BME280;43337;52.070;4.508;2023-05-21T08:57:30;102022.22;;;17.67;100.00
49030;BME280;43337;52.070;4.508;2023-05-21T08:59:57;102018.84;;;17.81;100.00
49030;BME280;43337;52.070;4.508;2023-05-21T09:02:22;102013.72;;;17.94;100.00
49030;BME280;43337;52.070;4.508;2023-05-21T09:04:49;101992.66;;;18.05;100.00
49030;BME280;43337;52.070;4.508;2023-05-21T09:07:15;101992.84;;;18.18;100.00
49030;BME280;43337;52.070;4.508;2023-05-21T09:09:47;102007.72;;;18.38;100.00
49030;BME280;43337;52.070;4.508;2023-05-21T09:12:15;102001.59;;;18.51;100.00
49030;BME280;43337;52.070;4.508;2023-05-21T09:14:41;102011.50;;;18.65;100.00
49030;BME280;43337;52.070;4.508;2023-05-21T09:17:07;102007.09;;;18.80;100.00
49030;BME280;43337;52.070;4.508;2023-05-21T09:19:32;102006.59;;;19.03;100.00
49030;BME280;43337;52.070;4.508;2023-05-21T09:22:01;102003.88;;;19.19;100.00
49030;BME280;43337;52.070;4.508;2023-05-21T09:24:30;102000.00;;;19.39;100.00
49030;BME280;43337;52.070;4.508;2023-05-21T09:26:56;101975.84;;;19.41;100.00
49030;BME280;43337;52.070;4.508;2023-05-21T09:29:23;101990.41;;;19.65;100.00
49030;BME280;43337;52.070;4.508;2023-05-21T09:31:50;101986.00;;;19.79;100.00
49030;BME280;43337;52.070;4.508;2023-05-21T09:34:15;101991.34;;;19.93;100.00
49030;BME280;43337;52.070;4.508;2023-05-21T09:36:41;101985.22;;;20.05;100.00
49030;BME280;43337;52.070;4.508;2023-05-21T09:39:07;101993.31;;;20.18;99.31
49030;BME280;43337;52.070;4.508;2023-05-21T09:41:35;101977.81;;;20.23;99.37
49030;BME280;43337;52.070;4.508;2023-05-21T09:44:01;101987.16;;;20.30;97.75
49030;BME280;43337;52.070;4.508;2023-05-21T09:46:27;101974.66;;;20.31;97.34
49030;BME280;43337;52.070;4.508;2023-05-21T09:49:01;101980.91;;;20.44;97.72
49030;BME280;43337;52.070;4.508;2023-05-21T09:51:26;101978.88;;;20.47;95.27
49030;BME280;43337;52.070;4.508;2023-05-21T09:53:56;101976.63;;;20.41;92.99
49030;BME280;43337;52.070;4.508;2023-05-21T09:56:26;101942.41;;;20.19;93.58
49030;BME280;43337;52.070;4.508;2023-05-21T09:58:54;101978.28;;;20.30;94.66
49030;BME280;43337;52.070;4.508;2023-05-21T10:01:21;101988.09;;;20.29;92.78
49030;BME280;43337;52.070;4.508;2023-05-21T10:03:53;101987.25;;;20.29;93.02
49030;BME280;43337;52.070;4.508;2023-05-21T10:06:20;101988.69;;;20.34;95.06
49030;BME280;43337;52.070;4.508;2023-05-21T10:08:51;101980.91;;;20.44;95.10
49030;BME280;43337;52.070;4.508;2023-05-21T10:11:18;101986.63;;;20.52;94.66
49030;BME280;43337;52.070;4.508;2023-05-21T10:13:47;101979.84;;;20.61;91.89
49030;BME280;43337;52.070;4.508;2023-05-21T10:16:17;101981.44;;;20.63;91.88
49030;BME280;43337;52.070;4.508;2023-05-21T10:18:42;101966.88;;;20.67;92.54
49030;BME280;43337;52.070;4.508;2023-05-21T10:21:10;101953.72;;;20.64;91.92
49030;BME280;43337;52.070;4.508;2023-05-21T10:23:36;101965.09;;;20.81;91.45
49030;BME280;43337;52.070;4.508;2023-05-21T10:26:02;101943.25;;;20.74;90.41
49030;BME280;43337;52.070;4.508;2023-05-21T10:28:30;101963.41;;;20.92;90.29
49030;BME280;43337;52.070;4.508;2023-05-21T10:30:57;101963.53;;;20.91;89.61
49030;BME280;43337;52.070;4.508;2023-05-21T10:33:24;101957.53;;;20.87;89.01
49030;BME280;43337;52.070;4.508;2023-05-21T10:35:50;101959.84;;;20.79;88.63
49030;BME280;43337;52.070;4.508;2023-05-21T10:38:18;101950.09;;;20.78;89.16
49030;BME280;43337;52.070;4.508;2023-05-21T10:40:46;101949.38;;;20.89;89.36
49030;BME280;43337;52.070;4.508;2023-05-21T10:43:37;101950.88;;;21.06;87.50
49030;BME280;43337;52.070;4.508;2023-05-21T10:46:23;101951.22;;;21.27;86.05
49030;BME280;43337;52.070;4.508;2023-05-21T10:49:47;101958.44;;;21.52;85.79
49030;BME280;43337;52.070;4.508;2023-05-21T10:54:56;101956.59;;;21.65;83.12
49030;BME280;43337;52.070;4.508;2023-05-21T11:00:19;101962.56;;;21.81;86.91
49030;BME280;43337;52.070;4.508;2023-05-21T11:02:47;101950.22;;;21.91;86.13
49030;BME280;43337;52.070;4.508;2023-05-21T11:05:12;101946.41;;;22.07;84.94
49030;BME280;43337;52.070;4.508;2023-05-21T11:07:56;101944.06;;;22.15;77.56
49030;BME280;43337;52.070;4.508;2023-05-21T11:13:12;101931.16;;;22.20;79.44
49030;BME280;43337;52.070;4.508;2023-05-21T11:26:19;101924.44;;;22.14;81.88
49030;BME280;43337;52.070;4.508;2023-05-21T11:31:30;101913.00;;;22.24;81.13
49030;BME280;43337;52.070;4.508;2023-05-21T11:34:10;101910.81;;;22.29;77.06
49030;BME280;43337;52.070;4.508;2023-05-21T11:36:37;101912.84;;;22.38;80.51
49030;BME280;43337;52.070;4.508;2023-05-21T11:39:15;101908.09;;;22.41;78.17
49030;BME280;43337;52.070;4.508;2023-05-21T11:41:58;101904.31;;;22.44;75.27
49030;BME280;43337;52.070;4.508;2023-05-21T11:44:40;101906.66;;;22.49;74.94
49030;BME280;43337;52.070;4.508;2023-05-21T11:47:09;101906.53;;;22.50;74.47
49030;BME280;43337;52.070;4.508;2023-05-21T11:49:35;101897.03;;;22.57;78.91
49030;BME280;43337;52.070;4.508;2023-05-21T11:52:02;101902.19;;;22.60;78.09
49030;BME280;43337;52.070;4.508;2023-05-21T11:54:29;101892.53;;;22.58;77.41
49030;BME280;43337;52.070;4.508;2023-05-21T11:56:58;101897.28;;;22.54;76.91
49030;BME280;43337;52.070;4.508;2023-05-21T11:59:25;101887.34;;;22.43;76.48
49030;BME280;43337;52.070;4.508;2023-05-21T12:01:50;101896.78;;;22.49;76.90
49030;BME280;43337;52.070;4.508;2023-05-21T12:04:15;101889.56;;;22.50;76.94
49030;BME280;43337;52.070;4.508;2023-05-21T12:06:44;101885.19;;;22.60;76.87
49030;BME280;43337;52.070;4.508;2023-05-21T12:09:10;101878.53;;;22.65;76.21
49030;BME280;43337;52.070;4.508;2023-05-21T12:11:38;101888.06;;;22.81;75.56
49030;BME280;43337;52.070;4.508;2023-05-21T12:14:07;101885.03;;;22.85;75.43
49030;BME280;43337;52.070;4.508;2023-05-21T12:16:34;101874.28;;;22.85;75.04
49030;BME280;43337;52.070;4.508;2023-05-21T12:18:59;101879.09;;;22.93;75.22
49030;BME280;43337;52.070;4.508;2023-05-21T12:21:27;101869.44;;;23.02;73.80
49030;BME280;43337;52.070;4.508;2023-05-21T12:23:53;101876.78;;;23.11;74.25
49030;BME280;43337;52.070;4.508;2023-05-21T12:26:19;101877.03;;;23.19;74.23
49030;BME280;43337;52.070;4.508;2023-05-21T12:28:46;101880.72;;;23.29;73.45
49030;BME280;43337;52.070;4.508;2023-05-21T12:31:16;101872.28;;;23.45;73.20
49030;BME280;43337;52.070;4.508;2023-05-21T12:33:47;101877.50;;;23.58;70.29
49030;BME280;43337;52.070;4.508;2023-05-21T12:36:26;101876.19;;;23.52;68.51
49030;BME280;43337;52.070;4.508;2023-05-21T12:38:52;101870.69;;;23.43;71.46
49030;BME280;43337;52.070;4.508;2023-05-21T12:41:18;101857.38;;;23.41;72.53
49030;BME280;43337;52.070;4.508;2023-05-21T12:43:44;101854.31;;;23.46;72.29
49030;BME280;43337;52.070;4.508;2023-05-21T12:46:10;101866.78;;;23.35;71.45
49030;BME280;43337;52.070;4.508;2023-05-21T12:48:39;101862.16;;;23.37;71.19
49030;BME280;43337;52.070;4.508;2023-05-21T12:51:05;101868.13;;;23.52;71.75
49030;BME280;43337;52.070;4.508;2023-05-21T12:53:36;101854.63;;;23.63;70.19
49030;BME280;43337;52.070;4.508;2023-05-21T12:56:09;101867.47;;;23.71;71.24
49030;BME280;43337;52.070;4.508;2023-05-21T12:58:35;101868.06;;;23.63;71.30
49030;BME280;43337;52.070;4.508;2023-05-21T13:01:10;101856.00;;;23.58;69.93
49030;BME280;43337;52.070;4.508;2023-05-21T13:03:36;101862.59;;;23.65;69.67
49030;BME280;43337;52.070;4.508;2023-05-21T13:06:05;101873.34;;;23.76;70.52